Powers Lake, North Dakota
Current Conditions -  °F | °C
As of 7:15 AM on Sunday 21 Dec 2014 (Local Time) from KD60 Reporting Station
Clear Clear  
Wind Chill: 12°   Ceiling: Unl
Heat Index: 12°   Visibility: 10mi
Dew Point: 12°   Wind: 3mph
Humidity: 100%   Direction: 60°ENE
Pressure: 29.54"   Gusts: NA
Location:  48.56°N, 102.65°W
Report Text: KD60 211315Z AUTO 06003KT 10SM CLR M11/M11 A2954 RMK AO2
Loading
Personal Weather Stations






























Interactive Weather Map New forecast layout! Learn more

10-Day Weather Forecast

Advertisements
Track Severe Weather on mobile